aviador You're here:

YTRE Decoded Metar

TAREE AIRPORT in _UNIDENTIFIED
Report Time2017-09-25 17:00:00
UTC Time2017-09-25 17:07:01
Flight Rules vfr VFR
Wind270° at 04 kt
W.Decomp.*RWY 22: 3.2 kt HW 2.5 kt RCW
W.Rank270° ranks 1
Current wind is below 270° avg. (5.8)
Visibility9999 m
Phenomena:N/A
Clouds:N/A
Expected CloudBase > 2,400 ft AGL from Temp-Dew spread
CeilingNone
Temp13°C (ISA -2)
Dew Point07°C (67% RH)
AAT10.9°C
QNH1012 hPa
Density Alt-20 ft
Elevation39 ft
Report Wrong Elevation
Raw Report
METAR YTRE 251700Z AUTO 27004KT 9999 // NCD 13/07 Q1012=

Extra information for YTRE:More info

Metar Taf Metar & Taf Last 4 Metars F.Rules Stats Wind Profile Meteogram Temp Stats Airport Information Weather charts Add Link Nearby VenuesMetar ALERT Operation Metar Decoded Social comments